Time;durP1;ratioP1;P1;durP2;ratioP2;P2;SDS_P1;SDS_P2;PMS_P1;PMS_P2;Temp;Humidity;BMP_temperature;BMP_pressure;BME280_temperature;BME280_humidity;BME280_pressure;Samples;Min_cycle;Max_cycle;Signal;HPM_P1;HPM_P2
2022/01/10 00:00:51;;;;;;;149.80;13.97;;;;;;;2.59;100.00;98016.81;5134515;27;20258;-67
2022/01/10 00:03:20;;;;;;;132.67;13.43;;;;;;;2.60;100.00;98022.66;5134347;27;20207;-58
2022/01/10 00:05:47;;;;;;;157.33;13.57;;;;;;;2.74;100.00;98012.59;5134162;27;20220;-65
2022/01/10 00:08:14;;;;;;;140.20;13.07;;;;;;;2.63;100.00;98022.47;5134194;27;20666;-67
2022/01/10 00:10:42;;;;;;;107.83;13.33;;;;;;;2.65;100.00;98011.41;5134075;27;20225;-66
2022/01/10 00:13:09;;;;;;;145.37;14.43;;;;;;;2.69;100.00;98017.06;5134080;27;20211;-58
2022/01/10 00:15:36;;;;;;;213.27;14.43;;;;;;;2.73;100.00;98023.56;5133941;27;20232;-59
2022/01/10 00:18:03;;;;;;;217.80;13.87;;;;;;;2.73;100.00;98023.56;5134038;27;20599;-67
2022/01/10 00:20:31;;;;;;;99.10;11.77;;;;;;;2.71;100.00;98026.19;5133886;27;20208;-67
2022/01/10 00:22:58;;;;;;;239.33;15.20;;;;;;;2.74;100.00;98029.44;5133965;27;20232;-58
2022/01/10 00:25:25;;;;;;;190.43;13.50;;;;;;;2.75;100.00;98031.88;5133829;27;20636;-58
2022/01/10 00:27:53;;;;;;;211.17;14.00;;;;;;;2.76;100.00;98030.94;5133794;27;20196;-67
2022/01/10 00:30:21;;;;;;;123.83;12.80;;;;;;;2.74;100.00;98025.19;5133420;27;20696;-58
2022/01/10 00:32:48;;;;;;;167.20;13.67;;;;;;;2.78;100.00;98021.59;5134018;27;20707;-67
2022/01/10 00:35:16;;;;;;;190.77;14.37;;;;;;;2.84;100.00;98023.75;5133548;27;20278;-58
2022/01/10 00:37:45;;;;;;;213.13;15.20;;;;;;;2.86;100.00;98019.44;5133755;27;20205;-59
2022/01/10 00:40:16;;;;;;;248.03;15.20;;;;;;;2.84;100.00;98030.53;5133868;27;20563;-67
2022/01/10 00:42:43;;;;;;;157.83;12.40;;;;;;;2.84;100.00;98031.34;5133445;27;20239;-59
2022/01/10 00:45:17;;;;;;;195.37;13.80;;;;;;;2.86;100.00;98024.50;5133485;27;20240;-58
2022/01/10 00:47:47;;;;;;;235.23;14.37;;;;;;;2.89;100.00;98024.31;5133530;27;20196;-59
2022/01/10 00:50:14;;;;;;;150.17;12.30;;;;;;;2.86;100.00;98019.44;5133287;27;20678;-58
2022/01/10 00:52:41;;;;;;;201.70;14.03;;;;;;;2.85;100.00;98032.13;5133669;27;20669;-66
2022/01/10 00:55:10;;;;;;;217.93;13.20;;;;;;;2.81;100.00;98028.97;5133137;27;20208;-66
2022/01/10 00:57:38;;;;;;;117.23;10.47;;;;;;;2.70;100.00;98026.25;5133552;27;20238;-59
2022/01/10 01:00:06;;;;;;;182.47;12.07;;;;;;;2.83;100.00;98033.97;5133102;27;20201;-67
2022/01/10 01:02:33;;;;;;;171.13;12.60;;;;;;;2.89;100.00;98034.41;5133151;27;20236;-58
2022/01/10 01:05:01;;;;;;;180.63;12.87;;;;;;;2.87;100.00;98021.06;5133086;27;20200;-59
2022/01/10 01:07:28;;;;;;;111.73;10.73;;;;;;;2.83;100.00;98019.63;5133461;27;20227;-59
2022/01/10 01:10:07;;;;;;;107.70;10.70;;;;;;;2.85;100.00;98014.47;5133097;27;20203;-59
2022/01/10 01:12:44;;;;;;;108.47;10.97;;;;;;;2.85;100.00;98007.72;5132961;27;20220;-67
2022/01/10 01:15:20;;;;;;;118.10;11.10;;;;;;;2.80;100.00;98013.94;5132840;27;20200;-59
2022/01/10 01:18:00;;;;;;;119.23;10.70;;;;;;;2.88;100.00;98007.56;5132901;27;20200;-59
2022/01/10 01:20:43;;;;;;;86.60;10.17;;;;;;;2.91;100.00;98001.53;5132746;27;20597;-59
2022/01/10 01:25:57;;;;;;;92.17;10.27;;;;;;;2.80;100.00;98014.75;5132875;27;20281;-59
2022/01/10 01:28:26;;;;;;;146.30;11.57;;;;;;;2.98;100.00;98012.06;5132699;27;20207;-58
2022/01/10 01:30:53;;;;;;;101.07;10.73;;;;;;;2.93;100.00;98005.56;5132323;27;20736;-58
2022/01/10 01:33:19;;;;;;;78.10;9.73;;;;;;;2.94;100.00;98009.72;5132731;27;20199;-67
2022/01/10 01:35:47;;;;;;;139.00;11.30;;;;;;;2.98;100.00;98007.00;5132608;27;20310;-64
2022/01/10 01:38:14;;;;;;;67.27;10.23;;;;;;;3.01;100.00;98004.31;5132608;27;20196;-67
2022/01/10 01:40:47;;;;;;;111.80;10.23;;;;;;;3.00;100.00;98005.22;5132385;27;20220;-59
2022/01/10 01:43:13;;;;;;;125.67;9.83;;;;;;;3.04;100.00;97999.06;5132562;27;20293;-67
2022/01/10 01:45:44;;;;;;;122.23;10.63;;;;;;;2.99;100.00;97998.53;5132402;27;20216;-58
2022/01/10 01:48:12;;;;;;;124.63;9.50;;;;;;;3.04;100.00;97999.88;5132559;27;20578;-68
2022/01/10 01:50:39;;;;;;;158.07;11.03;;;;;;;3.08;100.00;98008.06;5131976;27;20220;-67
2022/01/10 01:53:07;;;;;;;93.33;10.13;;;;;;;3.00;100.00;98005.22;5132156;27;20227;-67
2022/01/10 01:55:33;;;;;;;116.33;10.73;;;;;;;2.93;100.00;97997.97;5132139;27;22484;-67
2022/01/10 01:58:01;;;;;;;80.50;9.07;;;;;;;3.00;100.00;97998.44;5132092;27;20207;-59
2022/01/10 02:00:29;;;;;;;92.63;9.93;;;;;;;3.08;100.00;98003.03;5131989;27;20196;-58
2022/01/10 02:02:57;;;;;;;120.43;11.00;;;;;;;3.14;100.00;97997.59;5132072;27;20239;-66
2022/01/10 02:05:24;;;;;;;108.60;9.53;;;;;;;3.16;100.00;98008.44;5131765;27;20465;-67
2022/01/10 02:07:51;;;;;;;50.17;8.87;;;;;;;3.10;100.00;98002.03;5131649;27;20832;-59
2022/01/10 02:10:18;;;;;;;116.87;9.87;;;;;;;3.14;100.00;97997.59;5131593;27;20748;-67
2022/01/10 02:12:44;;;;;;;128.97;9.77;;;;;;;3.16;100.00;98003.38;5131974;27;20231;-59
2022/01/10 02:15:26;;;;;;;71.67;8.77;;;;;;;3.16;100.00;98006.72;5132053;27;20204;-67
2022/01/10 02:17:55;;;;;;;50.97;8.43;;;;;;;3.13;100.00;98006.09;5131711;27;20200;-59
2022/01/10 02:20:24;;;;;;;64.40;8.47;;;;;;;3.08;100.00;98003.84;5131297;27;20239;-58
2022/01/10 02:22:51;;;;;;;73.03;8.90;;;;;;;3.18;100.00;98004.94;5131675;27;20275;-59
2022/01/10 02:25:17;;;;;;;69.40;9.27;;;;;;;3.27;100.00;98001.03;5131571;27;20297;-59
2022/01/10 02:27:47;;;;;;;79.87;8.83;;;;;;;3.29;100.00;97996.72;5131649;27;20704;-58
2022/01/10 02:30:14;;;;;;;64.93;8.60;;;;;;;3.33;100.00;97988.03;5131608;27;20201;-58
2022/01/10 02:32:41;;;;;;;69.73;8.50;;;;;;;3.27;100.00;97988.41;5131342;27;20228;-59
2022/01/10 02:35:19;;;;;;;54.87;8.00;;;;;;;3.23;100.00;97992.03;5131733;27;20212;-66
2022/01/10 02:37:48;;;;;;;31.93;7.73;;;;;;;3.21;100.00;97988.78;5131825;27;20192;-58
2022/01/10 02:40:15;;;;;;;42.80;7.43;;;;;;;3.21;100.00;97998.88;5131286;27;20197;-66
2022/01/10 02:42:42;;;;;;;30.37;7.23;;;;;;;3.23;100.00;98002.13;5131472;28;20251;-67
2022/01/10 02:45:09;;;;;;;49.47;7.47;;;;;;;3.36;100.00;98003.00;5131611;28;20989;-58
2022/01/10 02:47:37;;;;;;;48.40;7.83;;;;;;;3.32;100.00;98013.41;5131336;28;20226;-67
2022/01/10 02:50:05;;;;;;;36.87;7.60;;;;;;;3.38;100.00;98015.56;5131331;28;20204;-59
2022/01/10 02:52:32;;;;;;;28.87;7.17;;;;;;;3.32;100.00;98015.94;5131134;28;20216;-67
2022/01/10 02:55:01;;;;;;;31.57;7.37;;;;;;;3.32;100.00;98021.78;5131580;27;20193;-59
2022/01/10 02:57:28;;;;;;;26.73;7.20;;;;;;;3.36;100.00;98020.69;5131194;28;20307;-66
2022/01/10 02:59:55;;;;;;;33.07;6.90;;;;;;;3.38;100.00;98015.56;5131343;28;20199;-59
2022/01/10 03:02:27;;;;;;;36.87;7.10;;;;;;;3.35;100.00;98014.03;5131292;28;20255;-62
2022/01/10 03:04:54;;;;;;;40.50;7.27;;;;;;;3.44;100.00;98012.66;5131602;27;20195;-59
2022/01/10 03:07:22;;;;;;;30.20;6.00;;;;;;;3.50;100.00;98009.75;5131076;27;20220;-58
2022/01/10 03:09:49;;;;;;;17.13;5.80;;;;;;;3.47;100.00;98004.91;5131239;27;20666;-67
2022/01/10 03:12:18;;;;;;;26.43;6.50;;;;;;;3.49;100.00;98012.38;5131040;28;20272;-67
2022/01/10 03:14:45;;;;;;;21.77;6.00;;;;;;;3.47;100.00;98007.44;5131334;28;20193;-67
2022/01/10 03:17:12;;;;;;;15.57;5.90;;;;;;;3.51;100.00;98005.50;5131372;28;20224;-58
2022/01/10 03:19:41;;;;;;;15.13;6.60;;;;;;;3.53;100.00;98006.25;5131573;28;20204;-58
2022/01/10 03:22:08;;;;;;;13.70;5.77;;;;;;;3.51;100.00;98005.50;5130708;28;20221;-59
2022/01/10 03:24:36;;;;;;;10.83;5.50;;;;;;;3.47;100.00;98009.16;5131042;28;20593;-59
2022/01/10 03:27:04;;;;;;;21.23;5.97;;;;;;;3.54;100.00;98006.13;5130820;28;20220;-67
2022/01/10 03:29:32;;;;;;;13.13;6.13;;;;;;;3.54;100.00;98015.44;5131182;27;20231;-67
2022/01/10 03:32:01;;;;;;;17.17;6.33;;;;;;;3.54;100.00;98007.84;5133902;27;20247;-58
2022/01/10 03:34:28;;;;;;;20.60;6.10;;;;;;;3.56;100.00;98013.63;5135026;27;20189;-66
2022/01/10 03:36:54;;;;;;;18.53;5.33;;;;;;;3.53;100.00;98013.81;5135028;27;20217;-59
2022/01/10 03:39:21;;;;;;;13.83;5.17;;;;;;;3.57;100.00;98010.19;5134806;27;20204;-58
2022/01/10 03:41:48;;;;;;;27.03;6.60;;;;;;;3.62;100.00;98013.25;5135012;27;20220;-58
2022/01/10 03:44:15;;;;;;;16.53;5.37;;;;;;;3.62;100.00;98006.47;5134750;27;20225;-59
2022/01/10 03:46:43;;;;;;;38.37;6.10;;;;;;;3.61;100.00;98014.19;5134678;27;20281;-58
2022/01/10 03:49:10;;;;;;;21.43;6.40;;;;;;;3.61;100.00;98011.66;5134936;27;20204;-67
2022/01/10 03:51:37;;;;;;;17.43;6.40;;;;;;;3.58;100.00;98006.78;5134855;27;20584;-67
2022/01/10 03:54:04;;;;;;;28.97;7.10;;;;;;;3.56;100.00;98009.38;5134879;27;20204;-67
2022/01/10 03:56:32;;;;;;;17.73;6.63;;;;;;;3.44;100.00;98004.28;5134224;27;20223;-58
2022/01/10 03:58:59;;;;;;;19.77;6.67;;;;;;;3.47;100.00;98009.16;5134463;27;20665;-67
2022/01/10 04:01:26;;;;;;;35.63;6.87;;;;;;;3.41;100.00;98005.28;5134173;27;20220;-67
2022/01/10 04:03:55;;;;;;;101.00;8.77;;;;;;;3.47;100.00;98011.66;5134320;27;20271;-58
2022/01/10 04:06:22;;;;;;;75.73;7.37;;;;;;;3.45;100.00;98018.53;5134076;27;20231;-58
2022/01/10 04:08:49;;;;;;;46.40;6.83;;;;;;;3.45;100.00;98026.91;5134333;27;20253;-58
2022/01/10 04:11:16;;;;;;;43.70;7.37;;;;;;;3.38;100.00;98023.94;5134253;27;20671;-60
2022/01/10 04:13:43;;;;;;;89.40;8.10;;;;;;;3.47;100.00;98025.13;5134222;27;20205;-59
2022/01/10 04:16:10;;;;;;;82.00;8.23;;;;;;;3.40;100.00;98019.63;5134122;27;20224;-58
2022/01/10 04:18:36;;;;;;;72.07;8.27;;;;;;;3.43;100.00;98022.84;5134081;27;20673;-67
2022/01/10 04:21:05;;;;;;;57.47;6.80;;;;;;;3.39;100.00;98023.03;5133810;27;20225;-59
2022/01/10 04:23:32;;;;;;;71.73;7.77;;;;;;;3.41;100.00;98025.47;5134037;27;20410;-58
2022/01/10 04:25:59;;;;;;;59.50;6.77;;;;;;;3.40;100.00;98019.63;5133912;27;20220;-67
2022/01/10 04:28:26;;;;;;;65.10;6.93;;;;;;;3.30;100.00;98013.47;5134170;27;20197;-59
2022/01/10 04:30:53;;;;;;;57.27;7.53;;;;;;;3.28;100.00;98010.22;5133749;27;20698;-67
2022/01/10 04:33:20;;;;;;;74.87;7.13;;;;;;;3.32;100.00;98013.41;5134043;27;20208;-67
2022/01/10 04:35:48;;;;;;;43.90;8.20;;;;;;;3.32;100.00;98015.94;5133993;27;20269;-67
2022/01/10 04:38:17;;;;;;;47.17;6.47;;;;;;;3.30;100.00;98010.16;5133680;27;20207;-67
2022/01/10 04:40:44;;;;;;;29.73;6.83;;;;;;;3.28;100.00;98020.34;5133560;27;20603;-66
2022/01/10 04:43:10;;;;;;;51.67;6.80;;;;;;;3.22;100.00;98019.91;5132958;27;20228;-58
2022/01/10 04:45:37;;;;;;;69.47;7.60;;;;;;;3.25;100.00;98024.75;5133414;27;20796;-66
2022/01/10 04:48:04;;;;;;;66.27;7.60;;;;;;;3.24;100.00;98029.00;5133525;27;20584;-58
2022/01/10 04:53:16;;;;;;;62.90;7.27;;;;;;;3.21;100.00;98034.25;5133215;27;20285;-59
2022/01/10 04:55:43;;;;;;;77.67;7.97;;;;;;;3.21;100.00;98041.00;5133271;27;20225;-59
2022/01/10 04:58:10;;;;;;;70.63;7.37;;;;;;;3.22;100.00;98045.97;5133444;27;20203;-59
2022/01/10 05:00:37;;;;;;;75.73;6.47;;;;;;;3.24;100.00;98039.13;5133278;27;20625;-66
2022/01/10 05:03:03;;;;;;;69.17;6.43;;;;;;;3.18;100.00;98044.53;5133089;27;20237;-67
2022/01/10 05:05:30;;;;;;;56.97;7.17;;;;;;;3.18;100.00;98042.00;5133073;27;20193;-58
2022/01/10 05:07:57;;;;;;;67.37;7.97;;;;;;;3.19;100.00;98041.09;5133185;27;20200;-60
2022/01/10 05:10:25;;;;;;;46.00;7.10;;;;;;;3.19;100.00;98041.09;5133046;27;20658;-66
2022/01/10 05:12:52;;;;;;;68.53;7.90;;;;;;;3.21;100.00;98039.28;5132962;27;20204;-67
2022/01/10 05:15:19;;;;;;;91.23;8.23;;;;;;;3.22;100.00;98051.00;5132700;27;20200;-67
2022/01/10 05:17:46;;;;;;;111.20;8.50;;;;;;;3.15;100.00;98049.75;5133039;27;20617;-68
2022/01/10 05:20:13;;;;;;;73.90;7.77;;;;;;;3.17;100.00;98047.94;5132991;27;20207;-67
2022/01/10 05:22:40;;;;;;;106.50;8.67;;;;;;;3.27;100.00;98043.19;5132532;27;20216;-67
2022/01/10 05:25:08;;;;;;;97.37;8.57;;;;;;;3.21;100.00;98039.28;5132705;27;20701;-58
2022/01/10 05:27:36;;;;;;;98.67;7.63;;;;;;;3.20;100.00;98045.25;5132725;27;20220;-58
2022/01/10 05:30:03;;;;;;;65.23;7.37;;;;;;;3.17;100.00;98042.88;5132889;27;20277;-58
2022/01/10 05:32:30;;;;;;;75.37;7.57;;;;;;;3.22;100.00;98048.50;5132409;27;20225;-67
2022/01/10 05:34:57;;;;;;;118.30;9.67;;;;;;;3.24;100.00;98056.00;5132665;27;20682;-67
2022/01/10 05:37:24;;;;;;;126.43;9.37;;;;;;;3.23;100.00;98056.88;5132487;27;20220;-67
2022/01/10 05:39:50;;;;;;;125.70;8.70;;;;;;;3.16;100.00;98071.56;5132822;27;20203;-66
2022/01/10 05:42:19;;;;;;;51.00;6.60;;;;;;;3.21;100.00;98071.31;5132278;27;20416;-58
2022/01/10 05:44:47;;;;;;;59.80;6.03;;;;;;;3.17;100.00;98078.25;5132300;27;20229;-58
2022/01/10 05:47:14;;;;;;;62.57;6.23;;;;;;;3.29;100.00;98071.69;5132568;27;20224;-58
2022/01/10 05:49:47;;;;;;;90.17;7.07;;;;;;;3.26;100.00;98072.69;5132336;27;20208;-59
2022/01/10 05:52:13;;;;;;;55.90;5.93;;;;;;;3.27;100.00;98081.06;5132129;27;20693;-67
2022/01/10 05:54:40;;;;;;;70.83;6.30;;;;;;;3.33;100.00;98088.28;5131401;27;20192;-58
2022/01/10 05:57:07;;;;;;;56.50;6.07;;;;;;;3.29;100.00;98097.75;5132373;27;20217;-67
2022/01/10 05:59:34;;;;;;;36.20;5.77;;;;;;;3.33;100.00;98094.13;5132268;27;20211;-67
2022/01/10 06:02:02;;;;;;;66.53;6.23;;;;;;;3.36;100.00;98099.00;5132077;27;20224;-67
2022/01/10 06:04:30;;;;;;;42.90;5.47;;;;;;;3.26;100.00;98108.03;5132334;27;20232;-58
2022/01/10 06:06:57;;;;;;;24.10;4.33;;;;;;;3.25;100.00;98106.41;5131960;27;20307;-58
2022/01/10 06:09:24;;;;;;;42.93;5.23;;;;;;;3.22;100.00;98114.16;5131984;27;20197;-59
2022/01/10 06:11:51;;;;;;;58.57;6.03;;;;;;;3.21;100.00;98115.06;5131842;27;20709;-67
2022/01/10 06:14:18;;;;;;;43.70;5.53;;;;;;;3.36;100.00;98119.22;5131910;27;20725;-58
2022/01/10 06:16:44;;;;;;;63.50;6.67;;;;;;;3.40;100.00;98127.44;5131835;27;20283;-58
2022/01/10 06:19:13;;;;;;;16.53;4.80;;;;;;;3.31;100.00;98131.31;5131901;27;20209;-58
2022/01/10 06:21:39;;;;;;;23.57;4.77;;;;;;;3.22;100.00;98136.88;5131642;27;20224;-57
2022/01/10 06:24:07;;;;;;;21.50;5.27;;;;;;;3.30;100.00;98132.22;5131917;27;20232;-58
2022/01/10 06:26:34;;;;;;;33.77;4.97;;;;;;;3.48;100.00;98142.16;5131624;27;20225;-57
2022/01/10 06:29:02;;;;;;;18.10;5.00;;;;;;;3.34;100.00;98136.19;5131819;27;20601;-58
2022/01/10 06:31:29;;;;;;;38.27;6.07;;;;;;;3.43;100.00;98139.06;5131298;27;20220;-58
2022/01/10 06:33:56;;;;;;;22.13;5.10;;;;;;;3.38;100.00;98142.69;5131703;27;20203;-58
2022/01/10 06:36:24;;;;;;;26.30;5.33;;;;;;;3.55;100.00;98138.34;5131769;27;20228;-58
2022/01/10 06:38:51;;;;;;;15.07;5.00;;;;;;;3.59;100.00;98139.81;5131520;27;20200;-67
2022/01/10 06:41:18;;;;;;;14.90;4.80;;;;;;;3.60;100.00;98137.19;5131670;27;20251;-66
2022/01/10 06:43:45;;;;;;;23.07;4.70;;;;;;;3.72;100.00;98130.59;5131598;27;20232;-66
2022/01/10 06:46:12;;;;;;;28.80;5.27;;;;;;;3.75;100.00;98139.69;5131401;27;20765;-66
2022/01/10 06:48:38;;;;;;;10.70;4.43;;;;;;;3.71;100.00;98139.06;5131722;27;20200;-66
2022/01/10 06:51:05;;;;;;;23.90;5.00;;;;;;;3.81;100.00;98141.84;5131500;27;20220;-66
2022/01/10 06:53:33;;;;;;;25.30;5.17;;;;;;;3.83;100.00;98143.41;5131374;27;20208;-66
2022/01/10 06:56:00;;;;;;;15.33;4.40;;;;;;;3.91;100.00;98142.13;5131355;28;20226;-58
2022/01/10 06:58:27;;;;;;;12.80;4.53;;;;;;;3.90;100.00;98148.09;5131681;27;20681;-58
2022/01/10 07:00:54;;;;;;;10.90;4.47;;;;;;;3.77;100.00;98156.41;5131210;28;20221;-67
2022/01/10 07:03:21;;;;;;;17.93;4.87;;;;;;;3.99;100.00;98155.16;5131156;27;20771;-58
2022/01/10 07:05:48;;;;;;;14.93;6.57;;;;;;;3.99;100.00;98162.72;5134103;27;20840;-67
2022/01/10 07:08:14;;;;;;;10.63;5.33;;;;;;;4.01;100.00;98164.22;5135551;27;20200;-58
2022/01/10 07:10:42;;;;;;;9.03;5.00;;;;;;;3.92;100.00;98156.41;5135423;27;20227;-67
2022/01/10 07:13:09;;;;;;;8.67;4.20;;;;;;;3.98;100.00;98156.03;5135510;27;20197;-58
2022/01/10 07:15:36;;;;;;;7.30;3.90;;;;;;;4.00;100.00;98162.63;5135264;27;20224;-59
2022/01/10 07:18:03;;;;;;;6.77;3.53;;;;;;;4.02;100.00;98162.53;5135127;27;20201;-66
2022/01/10 07:20:31;;;;;;;11.63;4.67;;;;;;;4.04;100.00;98165.78;5135010;27;20203;-58
2022/01/10 07:22:58;;;;;;;7.73;3.63;;;;;;;4.12;100.00;98166.13;5135262;27;20201;-58
2022/01/10 07:25:25;;;;;;;14.67;4.47;;;;;;;4.08;100.00;98173.09;5135134;27;20243;-59
2022/01/10 07:27:53;;;;;;;31.13;6.97;;;;;;;4.12;100.00;98181.31;5135054;27;20593;-59
2022/01/10 07:30:20;;;;;;;15.80;5.70;;;;;;;4.13;100.00;98179.56;5134869;27;20676;-58
2022/01/10 07:32:46;;;;;;;19.27;8.60;;;;;;;4.07;100.00;98181.59;5135086;27;20303;-66
2022/01/10 07:35:13;;;;;;;29.00;4.80;;;;;;;4.07;100.00;98185.81;5135271;27;20193;-66
2022/01/10 07:37:40;;;;;;;16.17;4.60;;;;;;;4.09;100.00;98184.03;5134765;27;20216;-67
2022/01/10 07:40:08;;;;;;;28.97;5.50;;;;;;;4.16;100.00;98182.75;5134891;27;20204;-59
2022/01/10 07:42:35;;;;;;;81.40;7.90;;;;;;;4.21;100.00;98183.28;5134676;27;20235;-67
2022/01/10 07:45:04;;;;;;;95.73;8.33;;;;;;;4.19;100.00;98177.50;5134985;27;20220;-67
2022/01/10 07:47:31;;;;;;;107.63;9.33;;;;;;;4.27;100.00;98182.09;5134868;27;20220;-67
2022/01/10 07:49:57;;;;;;;67.37;8.67;;;;;;;4.23;100.00;98178.13;5134888;27;20192;-67
2022/01/10 07:52:26;;;;;;;136.17;9.60;;;;;;;4.34;100.00;98182.53;5134737;27;20228;-68
2022/01/10 07:54:54;;;;;;;138.63;10.60;;;;;;;4.29;100.00;98186.16;5135049;27;20197;-57
2022/01/10 07:57:20;;;;;;;181.67;11.73;;;;;;;4.32;100.00;98191.03;5134490;27;20227;-65
2022/01/10 07:59:47;;;;;;;123.87;9.43;;;;;;;4.28;100.00;98194.66;5134752;27;20193;-56
2022/01/10 08:02:16;;;;;;;106.53;8.63;;;;;;;4.29;100.00;98206.41;5134732;27;20220;-57
2022/01/10 08:04:43;;;;;;;155.73;9.57;;;;;;;4.31;100.00;98199.53;5134288;27;20271;-57
2022/01/10 08:07:10;;;;;;;105.87;7.70;;;;;;;4.36;100.00;98198.44;5134506;27;20266;-58
2022/01/10 08:09:36;;;;;;;94.60;7.43;;;;;;;4.37;100.00;98207.66;5134093;27;20208;-59
2022/01/10 08:12:04;;;;;;;59.00;7.03;;;;;;;4.39;100.00;98208.34;5134325;27;20220;-66
2022/01/10 08:14:32;;;;;;;111.60;8.50;;;;;;;4.40;100.00;98218.41;5134241;27;20688;-59
2022/01/10 08:16:59;;;;;;;135.80;9.07;;;;;;;4.39;100.00;98208.34;5133478;27;20212;-67
2022/01/10 08:19:30;;;;;;;145.73;9.93;;;;;;;4.40;100.00;98205.75;5134143;27;20200;-67
2022/01/10 08:21:57;;;;;;;93.93;6.97;;;;;;;4.38;100.00;98204.22;5134002;27;20609;-60
2022/01/10 08:24:24;;;;;;;88.00;7.73;;;;;;;4.31;100.00;98202.06;5133779;27;20228;-67
2022/01/10 08:26:52;;;;;;;110.40;9.30;;;;;;;4.36;100.00;98206.03;5133805;27;20266;-58
2022/01/10 08:29:19;;;;;;;148.83;9.47;;;;;;;4.32;100.00;98206.19;5133914;27;20192;-67
2022/01/10 08:31:46;;;;;;;64.37;5.27;;;;;;;4.34;100.00;98207.84;5133981;27;20228;-59
2022/01/10 08:34:13;;;;;;;193.57;12.47;;;;;;;4.33;100.00;98207.00;5133997;27;20576;-67
2022/01/10 08:36:42;;;;;;;356.83;18.97;;;;;;;4.31;100.00;98209.66;5133912;27;20217;-67
2022/01/10 08:39:10;;;;;;;362.63;19.40;;;;;;;4.36;100.00;98213.59;5133675;27;20196;-58
2022/01/10 08:41:37;;;;;;;351.20;18.73;;;;;;;4.37;100.00;98212.72;5133403;27;20262;-62
2022/01/10 08:44:05;;;;;;;376.13;20.03;;;;;;;4.35;100.00;98209.47;5133587;27;20240;-59
2022/01/10 08:46:32;;;;;;;273.07;14.47;;;;;;;4.24;100.00;98210.91;5133827;27;20216;-60
2022/01/10 08:48:58;;;;;;;189.67;12.47;;;;;;;4.26;100.00;98201.53;5133561;27;20200;-67
2022/01/10 08:51:25;;;;;;;299.10;16.57;;;;;;;4.32;100.00;98208.72;5133419;27;20220;-67
2022/01/10 08:53:53;;;;;;;103.57;8.17;;;;;;;4.21;100.00;98208.56;5133352;27;20200;-59
2022/01/10 08:56:20;;;;;;;133.60;8.77;;;;;;;4.30;100.00;98202.13;5133455;27;20216;-59
2022/01/10 08:58:47;;;;;;;119.70;8.93;;;;;;;4.22;100.00;98210.22;5133563;27;20209;-67
2022/01/10 09:01:14;;;;;;;120.37;8.70;;;;;;;4.23;100.00;98201.72;5133424;27;20224;-66
2022/01/10 09:03:41;;;;;;;42.03;5.23;;;;;;;4.21;100.00;98198.44;5133611;27;20200;-68
2022/01/10 09:06:08;;;;;;;11.27;3.83;;;;;;;4.21;100.00;98203.50;5133352;27;20610;-68
2022/01/10 09:08:38;;;;;;;43.50;4.30;;;;;;;4.18;100.00;98206.22;5133226;27;20201;-67
2022/01/10 09:11:06;;;;;;;12.63;4.40;;;;;;;4.19;100.00;98200.28;5133076;27;20227;-59
2022/01/10 09:13:34;;;;;;;74.20;6.77;;;;;;;4.20;100.00;98201.91;5133075;27;20282;-67
2022/01/10 09:16:02;;;;;;;88.97;7.83;;;;;;;4.21;100.00;98208.56;5133212;27;20236;-59
2022/01/10 09:18:29;;;;;;;170.90;11.80;;;;;;;4.16;100.00;98207.22;5133092;27;20203;-58
2022/01/10 09:20:56;;;;;;;286.50;17.63;;;;;;;4.15;100.00;98208.94;5132883;27;20221;-58
2022/01/10 09:23:24;;;;;;;141.27;10.77;;;;;;;4.12;100.00;98204.06;5132778;27;20201;-66
2022/01/10 09:25:51;;;;;;;65.63;5.30;;;;;;;4.03;100.00;98209.69;5132812;27;20421;-67
2022/01/10 09:28:21;;;;;;;45.80;4.13;;;;;;;3.95;100.00;98207.59;5132878;27;20196;-67
2022/01/10 09:30:48;;;;;;;69.77;6.57;;;;;;;3.99;100.00;98203.19;5132657;27;20235;-67
2022/01/10 09:33:16;;;;;;;14.53;3.30;;;;;;;3.95;100.00;98204.25;5132538;27;20211;-67
2022/01/10 09:35:43;;;;;;;64.73;7.57;;;;;;;3.92;100.00;98209.50;5132784;27;20227;-59
2022/01/10 09:38:10;;;;;;;42.10;6.90;;;;;;;3.95;100.00;98209.31;5132839;27;20200;-67
2022/01/10 09:40:37;;;;;;;70.67;7.20;;;;;;;3.93;100.00;98203.56;5132513;27;20225;-59
2022/01/10 09:43:05;;;;;;;16.73;3.23;;;;;;;3.84;100.00;98210.78;5132362;27;20204;-68
2022/01/10 09:45:34;;;;;;;24.73;4.67;;;;;;;3.79;100.00;98207.69;5132236;27;20735;-63
2022/01/10 09:48:01;;;;;;;25.40;4.17;;;;;;;3.83;100.00;98206.59;5132558;27;20213;-67
2022/01/10 09:50:28;;;;;;;34.40;5.90;;;;;;;3.85;100.00;98207.34;5132295;27;20256;-59
2022/01/10 09:52:55;;;;;;;53.53;6.33;;;;;;;3.81;100.00;98205.06;5132550;27;20767;-67
2022/01/10 09:55:22;;;;;;;34.53;5.63;;;;;;;3.77;100.00;98204.44;5132189;27;20620;-64
2022/01/10 09:57:48;;;;;;;46.00;6.33;;;;;;;3.80;100.00;98209.31;5132321;27;20598;-59
2022/01/10 10:00:17;;;;;;;77.03;8.80;;;;;;;3.75;100.00;98211.31;5131939;27;20201;-67
2022/01/10 10:02:50;;;;;;;121.07;11.03;;;;;;;3.83;100.00;98209.13;5131942;27;20200;-67
2022/01/10 10:05:17;;;;;;;87.93;8.30;;;;;;;3.81;100.00;98216.03;5131847;27;20296;-68
2022/01/10 10:07:44;;;;;;;49.20;6.73;;;;;;;3.84;100.00;98205.72;5132151;27;20748;-67
2022/01/10 10:10:13;;;;;;;124.73;11.80;;;;;;;3.89;100.00;98204.63;5131892;27;20208;-67
2022/01/10 10:12:41;;;;;;;36.77;6.60;;;;;;;3.84;100.00;98200.66;5131697;27;20748;-67
2022/01/10 10:15:10;;;;;;;95.70;7.90;;;;;;;3.82;100.00;98205.00;5135692;27;20196;-67
2022/01/10 10:17:37;;;;;;;10.80;3.60;;;;;;;3.82;100.00;98197.41;5132050;27;20223;-68
2022/01/10 10:20:09;;;;;;;9.13;4.30;;;;;;;3.72;100.00;98198.84;5131760;27;20203;-59
2022/01/10 10:22:39;;;;;;;36.07;5.53;;;;;;;3.72;100.00;98201.38;5132092;27;20239;-59
2022/01/10 10:25:07;;;;;;;20.77;5.53;;;;;;;3.68;100.00;98204.97;5131554;27;20228;-59
2022/01/10 10:27:37;;;;;;;22.10;4.53;;;;;;;3.68;100.00;98207.50;5131922;27;20679;-58
2022/01/10 10:30:06;;;;;;;28.53;5.07;;;;;;;3.60;100.00;98202.09;5131753;27;20258;-59
2022/01/10 10:32:33;;;;;;;67.70;6.73;;;;;;;3.66;100.00;98206.78;5131495;27;20251;-58
2022/01/10 10:35:00;;;;;;;52.57;4.70;;;;;;;3.60;100.00;98217.25;5131636;27;20683;-60
2022/01/10 10:37:29;;;;;;;159.17;12.63;;;;;;;3.68;100.00;98215.09;5131950;27;20226;-68
2022/01/10 10:39:58;;;;;;;187.97;13.37;;;;;;;3.67;100.00;98210.16;5131302;27;20215;-68
2022/01/10 10:42:28;;;;;;;67.03;7.03;;;;;;;3.71;100.00;98214.91;5131536;27;20231;-68
2022/01/10 10:44:56;;;;;;;200.03;14.37;;;;;;;3.72;100.00;98205.59;5131569;27;20235;-59
2022/01/10 10:47:27;;;;;;;193.00;13.77;;;;;;;3.70;100.00;98208.25;5131815;28;20811;-58
2022/01/10 10:49:59;;;;;;;19.37;4.00;;;;;;;3.68;100.00;98199.94;5131493;28;20197;-68
2022/01/10 10:52:33;;;;;;;88.10;9.27;;;;;;;3.71;100.00;98204.81;5131517;27;20223;-59
2022/01/10 10:55:07;;;;;;;116.50;11.17;;;;;;;3.75;100.00;98211.31;5131382;28;20188;-67
2022/01/10 10:57:34;;;;;;;218.57;13.93;;;;;;;3.78;100.00;98216.19;5131392;28;20216;-67
2022/01/10 11:00:02;;;;;;;223.83;13.07;;;;;;;3.74;100.00;98212.22;5131412;27;20218;-59
2022/01/10 11:02:29;;;;;;;131.23;10.83;;;;;;;3.70;100.00;98218.34;5131353;28;20231;-68
2022/01/10 11:04:56;;;;;;;188.07;13.40;;;;;;;3.67;100.00;98213.47;5131482;28;20243;-67
2022/01/10 11:07:27;;;;;;;65.83;7.20;;;;;;;3.68;100.00;98219.34;5131293;28;20243;-58
2022/01/10 11:09:56;;;;;;;109.80;9.67;;;;;;;3.63;100.00;98217.88;5131360;28;20208;-59
2022/01/10 11:12:24;;;;;;;137.17;10.47;;;;;;;3.60;100.00;98220.59;5131189;28;20228;-67
2022/01/10 11:14:54;;;;;;;72.83;7.30;;;;;;;3.60;100.00;98222.31;5131128;28;20200;-68
2022/01/10 11:17:22;;;;;;;111.50;9.33;;;;;;;3.64;100.00;98213.66;5131441;28;20231;-58
2022/01/10 11:20:08;;;;;;;82.23;7.33;;;;;;;3.55;100.00;98217.53;5131167;28;20606;-59
2022/01/10 11:22:35;;;;;;;89.23;6.63;;;;;;;3.58;100.00;98219.06;5131360;28;20308;-67
2022/01/10 11:25:04;;;;;;;129.80;8.43;;;;;;;3.51;100.00;98217.78;5131129;27;20228;-59
2022/01/10 11:27:32;;;;;;;157.23;11.80;;;;;;;3.55;100.00;98214.16;5131275;28;20220;-67
2022/01/10 11:30:00;;;;;;;211.97;14.27;;;;;;;3.54;100.00;98223.47;5131284;28;20589;-58